createdAt,value
2018-12-07T00:00:01.897Z,15.30
2018-12-07T00:02:28.898Z,16.20
2018-12-07T00:04:55.958Z,16.10
2018-12-07T00:07:22.937Z,15.93
2018-12-07T00:09:56.917Z,15.30
2018-12-07T00:12:23.898Z,15.33
2018-12-07T00:14:51.098Z,16.50
2018-12-07T00:17:18.138Z,16.17
2018-12-07T00:19:47.841Z,15.57
2018-12-07T00:22:13.790Z,15.13
2018-12-07T00:24:40.803Z,15.73
2018-12-07T00:27:07.863Z,15.83
2018-12-07T00:29:34.863Z,15.67
2018-12-07T00:32:01.904Z,14.57
2018-12-07T00:34:28.923Z,15.50
2018-12-07T00:36:56.003Z,14.43
2018-12-07T00:39:23.011Z,14.13
2018-12-07T00:41:50.023Z,14.50
2018-12-07T00:44:17.023Z,13.80
2018-12-07T00:46:44.043Z,14.67
2018-12-07T00:49:11.063Z,15.73
2018-12-07T00:51:38.123Z,16.10
2018-12-07T00:54:05.544Z,16.90
2018-12-07T00:56:33.243Z,14.40
2018-12-07T00:59:00.283Z,15.87
2018-12-07T01:01:27.343Z,15.30
2018-12-07T01:03:54.323Z,15.33
2018-12-07T01:06:21.403Z,15.93
2018-12-07T01:08:48.423Z,15.60
2018-12-07T01:11:15.493Z,16.67
2018-12-07T01:13:42.573Z,17.10
2018-12-07T01:16:09.674Z,17.70
2018-12-07T01:18:36.614Z,16.20
2018-12-07T01:21:04.055Z,15.87
2018-12-07T01:23:31.075Z,17.17
2018-12-07T01:25:58.154Z,15.83
2018-12-07T01:28:25.373Z,17.03
2018-12-07T01:30:52.354Z,16.17
2018-12-07T01:33:19.393Z,17.20
2018-12-07T01:35:46.594Z,16.60
2018-12-07T01:38:13.633Z,16.40
2018-12-07T01:40:47.614Z,16.63
2018-12-07T01:43:14.673Z,15.40
2018-12-07T01:45:41.695Z,16.13
2018-12-07T01:48:08.814Z,15.83
2018-12-07T01:50:35.839Z,17.33
2018-12-07T01:53:02.934Z,15.70
2018-12-07T01:55:29.973Z,15.57
2018-12-07T01:57:57.013Z,15.57
2018-12-07T02:00:24.035Z,16.80
2018-12-07T02:02:51.073Z,18.40
2018-12-07T02:05:18.113Z,18.17
2018-12-07T02:07:45.174Z,17.53
2018-12-07T02:10:12.215Z,16.20
2018-12-07T02:12:39.666Z,15.53
2018-12-07T02:15:06.734Z,13.63
2018-12-07T02:17:33.738Z,14.33
2018-12-07T02:20:00.853Z,16.00
2018-12-07T02:22:27.927Z,15.70
2018-12-07T02:25:02.153Z,15.13
2018-12-07T02:27:31.935Z,14.90
2018-12-07T02:30:06.053Z,15.43
2018-12-07T02:32:33.055Z,17.10
2018-12-07T02:34:59.989Z,19.00
2018-12-07T02:37:27.048Z,16.93
2018-12-07T02:39:54.035Z,16.73
2018-12-07T02:42:21.074Z,17.63
2018-12-07T02:44:55.256Z,17.87
2018-12-07T02:47:22.255Z,18.23
2018-12-07T02:49:49.294Z,17.20
2018-12-07T02:52:16.285Z,17.03
2018-12-07T02:54:43.255Z,17.43
2018-12-07T02:57:10.755Z,16.53
2018-12-07T02:59:37.894Z,18.70
2018-12-07T03:02:04.934Z,16.33
2018-12-07T03:04:31.974Z,15.17
2018-12-07T03:07:05.874Z,16.57
2018-12-07T03:09:32.935Z,16.57
2018-12-07T03:11:59.936Z,16.00
2018-12-07T03:14:26.935Z,16.33
2018-12-07T03:16:53.951Z,15.10
2018-12-07T03:19:20.962Z,16.47
2018-12-07T03:21:48.061Z,18.00
2018-12-07T03:24:15.077Z,18.83
2018-12-07T03:26:42.034Z,18.23
2018-12-07T03:29:09.034Z,18.57
2018-12-07T03:31:36.035Z,16.87
2018-12-07T03:34:03.040Z,18.07
2018-12-07T03:36:30.175Z,19.23
2018-12-07T03:38:57.276Z,19.33
2018-12-07T03:41:24.276Z,18.27
2018-12-07T03:43:51.814Z,19.00
2018-12-07T03:46:18.854Z,17.70
2018-12-07T03:48:45.914Z,18.33
2018-12-07T03:51:12.915Z,18.63
2018-12-07T03:53:39.935Z,17.93
2018-12-07T03:56:06.874Z,18.97
2018-12-07T03:58:33.896Z,18.00
2018-12-07T04:01:00.934Z,18.27
2018-12-07T04:03:27.994Z,17.87
2018-12-07T04:05:54.935Z,17.67
2018-12-07T04:08:22.017Z,17.33
2018-12-07T04:10:48.994Z,18.37
2018-12-07T04:13:15.955Z,17.67
2018-12-07T04:15:42.995Z,16.77
2018-12-07T04:18:10.018Z,16.57
2018-12-07T04:20:37.015Z,17.83
2018-12-07T04:23:04.055Z,16.90
2018-12-07T04:25:31.076Z,17.57
2018-12-07T04:27:58.034Z,16.50
2018-12-07T04:30:25.562Z,16.10
2018-12-07T04:32:52.576Z,16.80
2018-12-07T04:35:19.554Z,17.37
2018-12-07T04:37:46.516Z,16.67
2018-12-07T04:40:14.419Z,17.03
2018-12-07T04:42:41.416Z,17.30
2018-12-07T04:48:57.597Z,16.20
2018-12-07T04:51:24.575Z,15.83
2018-12-07T04:53:51.535Z,16.53
2018-12-07T04:56:18.536Z,16.37
2018-12-07T04:58:45.859Z,15.73
2018-12-07T05:01:12.895Z,17.33
2018-12-07T05:03:39.954Z,17.23
2018-12-07T05:06:13.838Z,16.80
2018-12-07T05:08:40.835Z,17.40
2018-12-07T05:11:07.776Z,15.77
2018-12-07T05:13:41.815Z,16.23
2018-12-07T05:16:08.775Z,16.70
2018-12-07T05:18:35.858Z,16.80
2018-12-07T05:21:02.959Z,17.70
2018-12-07T05:23:29.955Z,17.40
2018-12-07T05:25:56.955Z,17.63
2018-12-07T05:28:24.114Z,17.77
2018-12-07T05:30:51.081Z,17.80
2018-12-07T05:33:19.055Z,18.10
2018-12-07T05:35:46.035Z,17.93
2018-12-07T05:38:13.035Z,18.20
2018-12-07T05:40:39.987Z,17.70
2018-12-07T05:43:06.981Z,17.23
2018-12-07T05:45:33.976Z,18.87
2018-12-07T05:48:00.916Z,17.87
2018-12-07T05:50:28.442Z,17.47
2018-12-07T05:52:55.395Z,18.07
2018-12-07T05:55:22.415Z,17.63
2018-12-07T05:57:49.435Z,18.27
2018-12-07T06:00:16.517Z,18.20
2018-12-07T06:02:43.475Z,18.37
2018-12-07T06:05:10.695Z,18.47
2018-12-07T06:07:37.697Z,18.60
2018-12-07T06:10:04.874Z,19.63
2018-12-07T06:12:31.835Z,19.07
2018-12-07T06:14:59.054Z,19.67
2018-12-07T06:17:26.075Z,20.50
2018-12-07T06:19:53.095Z,20.03
2018-12-07T06:22:20.175Z,19.23
2018-12-07T06:24:47.254Z,19.57
2018-12-07T06:27:14.234Z,19.27
2018-12-07T06:29:41.294Z,19.03
2018-12-07T06:32:08.373Z,19.70
2018-12-07T06:34:35.534Z,19.07
2018-12-07T06:37:02.614Z,18.70
2018-12-07T06:39:29.633Z,19.40
2018-12-07T06:41:56.654Z,19.00
2018-12-07T06:44:23.573Z,20.00
2018-12-07T06:46:50.673Z,20.87
2018-12-07T06:49:17.654Z,20.73
2018-12-07T06:51:44.696Z,20.77
2018-12-07T06:54:11.673Z,20.30
2018-12-07T06:56:38.653Z,22.50
2018-12-07T06:59:05.698Z,21.73
2018-12-07T07:01:32.694Z,21.03
2018-12-07T07:03:59.754Z,21.53
2018-12-07T07:06:33.756Z,22.70
2018-12-07T07:09:00.754Z,23.90
2018-12-07T07:11:27.894Z,23.70
2018-12-07T07:13:54.934Z,22.37
2018-12-07T07:16:28.854Z,24.67
2018-12-07T07:18:55.954Z,20.90
2018-12-07T07:21:23.154Z,21.63
2018-12-07T07:23:50.227Z,23.03
2018-12-07T07:26:17.256Z,23.73
2018-12-07T07:28:44.195Z,23.80
2018-12-07T07:31:11.292Z,21.97
2018-12-07T07:33:38.334Z,21.80
2018-12-07T07:36:05.414Z,22.10
2018-12-07T07:38:32.374Z,23.20
2018-12-07T07:41:06.179Z,21.80
2018-12-07T07:43:33.654Z,20.73
2018-12-07T07:46:00.694Z,20.57
2018-12-07T07:48:27.653Z,20.83
2018-12-07T07:53:56.833Z,20.00
2018-12-07T07:56:23.894Z,19.57
2018-12-07T07:58:50.974Z,19.23
2018-12-07T08:01:17.973Z,19.00
2018-12-07T08:03:45.014Z,19.40
2018-12-07T08:06:18.873Z,18.03
2018-12-07T08:08:45.914Z,19.37
2018-12-07T08:11:12.873Z,18.30
2018-12-07T08:13:40.033Z,17.13
2018-12-07T08:16:07.074Z,17.03
2018-12-07T08:18:34.073Z,15.83
2018-12-07T08:21:01.136Z,13.33
2018-12-07T08:23:28.134Z,14.10
2018-12-07T08:25:55.155Z,14.30
2018-12-07T08:28:22.731Z,14.00
2018-12-07T08:30:50.093Z,13.90
2018-12-07T08:33:17.093Z,13.70
2018-12-07T08:35:44.113Z,13.70
2018-12-07T08:38:11.133Z,14.43
2018-12-07T08:40:38.155Z,13.27
2018-12-07T08:43:05.156Z,15.43
2018-12-07T08:45:32.133Z,14.67
2018-12-07T08:47:59.075Z,14.80
2018-12-07T08:50:26.349Z,14.87
2018-12-07T08:52:53.392Z,15.40
2018-12-07T08:55:20.415Z,15.77
2018-12-07T08:57:47.413Z,15.00
2018-12-07T09:00:14.512Z,15.50
2018-12-07T09:02:41.513Z,15.57
2018-12-07T09:05:08.573Z,16.03
2018-12-07T09:07:35.613Z,14.93
2018-12-07T09:10:04.073Z,14.90
2018-12-07T09:12:31.373Z,14.30
2018-12-07T09:14:58.336Z,15.93
2018-12-07T09:17:25.375Z,14.77
2018-12-07T09:19:52.333Z,15.10
2018-12-07T09:22:19.416Z,15.73
2018-12-07T09:24:46.372Z,15.17
2018-12-07T09:27:20.463Z,15.23
2018-12-07T09:29:47.356Z,14.60
2018-12-07T09:32:14.317Z,14.67
2018-12-07T09:34:41.272Z,15.07
2018-12-07T09:37:08.293Z,15.27
2018-12-07T09:39:35.313Z,14.40
2018-12-07T09:42:02.317Z,14.10
2018-12-07T09:44:29.673Z,14.30
2018-12-07T09:46:56.696Z,13.97
2018-12-07T09:49:30.859Z,13.57
2018-12-07T09:51:57.893Z,13.80
2018-12-07T09:54:24.853Z,14.53
2018-12-07T09:56:51.953Z,13.97
2018-12-07T09:59:18.933Z,14.50
2018-12-07T10:01:46.077Z,14.43
2018-12-07T10:04:13.395Z,14.40
2018-12-07T10:06:40.452Z,14.53
2018-12-07T10:09:07.493Z,13.50
2018-12-07T10:11:34.553Z,13.03
2018-12-07T10:14:02.060Z,14.80
2018-12-07T10:16:29.140Z,13.60
2018-12-07T10:18:56.098Z,14.33
2018-12-07T10:21:23.094Z,13.27
2018-12-07T10:23:50.094Z,13.70
2018-12-07T10:26:17.133Z,14.13
2018-12-07T10:28:44.095Z,12.03
2018-12-07T10:31:11.133Z,13.23
2018-12-07T10:33:38.113Z,12.43
2018-12-07T10:36:05.132Z,12.80
2018-12-07T10:38:32.154Z,12.40
2018-12-07T10:40:59.552Z,12.87
2018-12-07T10:43:26.774Z,11.87
2018-12-07T10:45:53.814Z,12.53
2018-12-07T10:48:20.801Z,11.90
2018-12-07T10:50:47.974Z,11.33
2018-12-07T10:53:15.014Z,11.87
2018-12-07T10:55:42.054Z,12.03
2018-12-07T10:58:09.076Z,11.90
2018-12-07T11:00:42.176Z,11.80
2018-12-07T11:03:15.076Z,12.27
2018-12-07T11:05:42.192Z,11.10
2018-12-07T11:08:15.153Z,11.33
2018-12-07T11:10:48.274Z,10.57
2018-12-07T11:13:21.293Z,10.73
2018-12-07T11:15:54.438Z,11.30
2018-12-07T11:18:27.357Z,11.57
2018-12-07T11:21:07.214Z,11.47
2018-12-07T11:26:45.997Z,11.07
2018-12-07T11:29:15.095Z,12.37
2018-12-07T11:31:44.253Z,12.50
2018-12-07T11:34:13.321Z,12.20
2018-12-07T11:36:40.353Z,12.37
2018-12-07T11:39:08.254Z,12.43
2018-12-07T11:41:35.313Z,11.27
2018-12-07T11:44:02.273Z,12.13
2018-12-07T11:46:36.386Z,10.97
2018-12-07T11:49:03.394Z,11.40
2018-12-07T11:51:37.554Z,10.17
2018-12-07T11:57:00.573Z,10.80
2018-12-07T11:59:27.576Z,10.43
2018-12-07T12:01:54.639Z,10.87
2018-12-07T12:04:21.573Z,9.40
2018-12-07T12:06:48.593Z,9.33
2018-12-07T12:09:15.553Z,9.67
2018-12-07T12:11:42.514Z,9.67
2018-12-07T12:14:09.515Z,10.50
2018-12-07T12:16:36.533Z,10.93
2018-12-07T12:19:03.495Z,11.27
2018-12-07T12:21:30.422Z,10.17
2018-12-07T12:23:57.454Z,10.63
2018-12-07T12:26:24.575Z,10.03
2018-12-07T12:28:51.731Z,9.87
2018-12-07T12:31:18.721Z,10.60
2018-12-07T12:33:45.761Z,11.07
2018-12-07T12:36:17.029Z,10.20
2018-12-07T12:38:42.162Z,10.43
2018-12-07T12:41:09.101Z,10.10
2018-12-07T12:43:36.104Z,10.00
2018-12-07T12:46:03.162Z,9.47
2018-12-07T12:48:30.401Z,9.63
2018-12-07T12:50:59.041Z,10.53
2018-12-07T12:53:26.102Z,9.77
2018-12-07T12:55:53.200Z,9.27
2018-12-07T12:58:20.261Z,9.53
2018-12-07T13:00:47.224Z,9.43
2018-12-07T13:03:14.281Z,8.30
2018-12-07T13:05:41.221Z,8.63
2018-12-07T13:08:08.200Z,8.53
2018-12-07T13:10:35.261Z,8.07
2018-12-07T13:13:02.321Z,8.13
2018-12-07T13:15:29.341Z,9.17
2018-12-07T13:18:07.691Z,8.00
2018-12-07T13:20:34.662Z,8.23
2018-12-07T13:23:01.642Z,8.40
2018-12-07T13:25:28.642Z,8.20
2018-12-07T13:27:55.662Z,8.10
2018-12-07T13:30:22.640Z,8.20
2018-12-07T13:32:49.561Z,8.73
2018-12-07T13:35:16.531Z,8.03
2018-12-07T13:37:43.509Z,8.93
2018-12-07T13:40:10.691Z,8.57
2018-12-07T13:42:37.790Z,8.43
2018-12-07T13:45:06.770Z,8.03
2018-12-07T13:47:33.944Z,8.30
2018-12-07T13:50:07.104Z,8.97
2018-12-07T13:52:34.301Z,8.80
2018-12-07T13:55:01.708Z,8.87
2018-12-07T13:57:28.910Z,8.80
2018-12-07T13:59:56.071Z,9.03
2018-12-07T14:02:23.333Z,9.20
2018-12-07T14:04:50.635Z,9.20
2018-12-07T14:07:17.862Z,8.73
2018-12-07T14:09:45.022Z,8.17
2018-12-07T14:12:12.651Z,8.43
2018-12-07T14:14:39.757Z,8.50
2018-12-07T14:17:07.113Z,10.33
2018-12-07T14:19:34.260Z,9.13
2018-12-07T14:22:01.773Z,9.80
2018-12-07T14:24:28.866Z,8.83
2018-12-07T14:26:59.469Z,9.33
2018-12-07T14:29:25.181Z,9.30
2018-12-07T14:31:52.750Z,9.50
2018-12-07T14:34:19.972Z,9.47
2018-12-07T14:36:47.095Z,9.93
2018-12-07T14:39:14.177Z,9.80
2018-12-07T14:41:41.193Z,11.33
2018-12-07T14:44:08.549Z,11.13
2018-12-07T14:46:36.034Z,11.67
2018-12-07T14:49:03.582Z,12.50
2018-12-07T14:51:30.849Z,11.90
2018-12-07T14:53:58.217Z,12.13
2018-12-07T14:56:25.276Z,12.43
2018-12-07T14:58:52.333Z,13.07
2018-12-07T15:01:19.515Z,12.67
2018-12-07T15:03:46.821Z,12.93
2018-12-07T15:06:14.039Z,12.80
2018-12-07T15:08:41.363Z,12.67
2018-12-07T15:11:08.616Z,13.30
2018-12-07T15:13:36.131Z,13.77
2018-12-07T15:16:03.242Z,13.93
2018-12-07T15:18:30.371Z,13.83
2018-12-07T15:20:57.449Z,14.00
2018-12-07T15:23:24.697Z,13.70
2018-12-07T15:25:51.815Z,14.70
2018-12-07T15:28:18.896Z,14.23
2018-12-07T15:30:46.007Z,13.93
2018-12-07T15:33:13.021Z,14.47
2018-12-07T15:35:40.072Z,15.73
2018-12-07T15:38:07.078Z,15.20
2018-12-07T15:40:34.374Z,16.27
2018-12-07T15:43:01.355Z,16.40
2018-12-07T15:45:28.673Z,14.90
2018-12-07T15:47:55.887Z,15.17
2018-12-07T15:50:25.314Z,15.47
2018-12-07T15:52:52.571Z,15.37
2018-12-07T15:55:19.654Z,16.73
2018-12-07T15:57:46.748Z,15.23
2018-12-07T16:00:13.757Z,15.97
2018-12-07T16:02:41.113Z,15.37
2018-12-07T16:05:08.371Z,16.53
2018-12-07T16:07:35.506Z,16.70
2018-12-07T16:10:16.653Z,15.23
2018-12-07T16:12:44.087Z,15.07
2018-12-07T16:15:11.351Z,16.33
2018-12-07T16:17:38.447Z,17.40
2018-12-07T16:20:10.310Z,14.97
2018-12-07T16:22:37.487Z,16.07
2018-12-07T16:25:05.014Z,15.10
2018-12-07T16:27:32.049Z,15.83
2018-12-07T16:29:59.231Z,16.10
2018-12-07T16:32:26.176Z,15.00
2018-12-07T16:34:53.265Z,15.73
2018-12-07T16:37:20.773Z,15.07
2018-12-07T16:39:48.045Z,16.00
2018-12-07T16:42:15.121Z,16.30
2018-12-07T16:44:42.306Z,18.07
2018-12-07T16:47:09.246Z,17.53
2018-12-07T16:49:36.449Z,17.53
2018-12-07T16:52:03.839Z,19.13
2018-12-07T16:54:30.897Z,17.00
2018-12-07T16:56:57.989Z,15.33
2018-12-07T16:59:25.065Z,18.10
2018-12-07T17:01:52.398Z,17.40
2018-12-07T17:04:19.457Z,16.53
2018-12-07T17:06:53.553Z,17.07
2018-12-07T17:09:23.742Z,17.60
2018-12-07T17:11:50.856Z,18.17
2018-12-07T17:14:17.895Z,16.87
2018-12-07T17:16:45.626Z,17.93
2018-12-07T17:19:12.630Z,18.70
2018-12-07T17:21:39.767Z,18.67
2018-12-07T17:24:07.145Z,17.80
2018-12-07T17:26:34.225Z,17.93
2018-12-07T17:29:01.818Z,19.57
2018-12-07T17:31:28.881Z,18.60
2018-12-07T17:33:56.261Z,18.37
2018-12-07T17:36:23.614Z,19.93
2018-12-07T17:38:57.574Z,19.63
2018-12-07T17:41:24.774Z,18.20
2018-12-07T17:43:54.908Z,18.70
2018-12-07T17:46:22.200Z,17.37
2018-12-07T17:48:49.618Z,18.37
2018-12-07T17:51:16.591Z,18.43
2018-12-07T17:53:43.821Z,18.73
2018-12-07T17:56:11.084Z,17.90
2018-12-07T17:58:38.208Z,18.20
2018-12-07T18:01:05.268Z,19.17
2018-12-07T18:03:32.308Z,19.47
2018-12-07T18:05:59.369Z,20.13
2018-12-07T18:08:26.737Z,19.40
2018-12-07T18:10:54.059Z,20.80
2018-12-07T18:13:21.184Z,21.60
2018-12-07T18:15:55.324Z,20.53
2018-12-07T18:18:22.433Z,20.27
2018-12-07T18:20:49.736Z,18.47
2018-12-07T18:23:17.110Z,18.67
2018-12-07T18:25:44.269Z,18.40
2018-12-07T18:28:11.248Z,17.50
2018-12-07T18:30:38.374Z,16.57
2018-12-07T18:33:05.630Z,16.00
2018-12-07T18:35:32.796Z,16.57
2018-12-07T18:37:59.915Z,15.37
2018-12-07T18:40:34.227Z,17.13
2018-12-07T18:43:01.381Z,15.90
2018-12-07T18:45:28.576Z,18.13
2018-12-07T18:47:55.698Z,17.80
2018-12-07T18:50:22.723Z,18.73
2018-12-07T18:52:51.741Z,17.37
2018-12-07T18:55:18.859Z,19.70
2018-12-07T18:57:45.922Z,20.63
2018-12-07T19:00:13.028Z,17.30
2018-12-07T19:02:40.217Z,18.37
2018-12-07T19:05:08.171Z,20.50
2018-12-07T19:07:35.458Z,23.50
2018-12-07T19:10:03.571Z,22.23
2018-12-07T19:12:30.704Z,22.97
2018-12-07T19:14:57.944Z,23.50
2018-12-07T19:17:25.149Z,22.93
2018-12-07T19:19:52.608Z,22.27
2018-12-07T19:22:19.971Z,21.20
2018-12-07T19:24:47.142Z,21.60
2018-12-07T19:27:14.219Z,22.77
2018-12-07T19:29:41.393Z,21.77
2018-12-07T19:32:08.599Z,22.33
2018-12-07T19:34:35.695Z,21.80
2018-12-07T19:37:02.982Z,21.30
2018-12-07T19:39:30.131Z,20.47
2018-12-07T19:41:57.151Z,24.53
2018-12-07T19:44:24.151Z,22.23
2018-12-07T19:46:51.355Z,22.07
2018-12-07T19:49:18.687Z,21.23
2018-12-07T19:51:45.811Z,22.03
2018-12-07T19:54:13.333Z,21.77
2018-12-07T19:56:40.591Z,23.70
2018-12-07T20:02:03.232Z,21.17
2018-12-07T20:04:30.712Z,21.43
2018-12-07T20:06:58.229Z,21.60
2018-12-07T20:09:25.830Z,21.63
2018-12-07T20:11:53.327Z,22.43
2018-12-07T20:14:34.856Z,24.10
2018-12-07T20:17:01.928Z,23.00
2018-12-07T20:19:29.159Z,23.47
2018-12-07T20:21:56.102Z,22.20
2018-12-07T20:24:23.419Z,23.50
2018-12-07T20:26:50.885Z,24.23
2018-12-07T20:29:18.162Z,25.27
2018-12-07T20:31:52.689Z,25.23
2018-12-07T20:34:19.850Z,24.57
2018-12-07T20:36:47.076Z,22.80
2018-12-07T20:39:14.254Z,21.90
2018-12-07T20:41:41.290Z,25.60
2018-12-07T20:44:08.242Z,27.90
2018-12-07T20:46:35.539Z,26.03
2018-12-07T20:49:02.817Z,26.00
2018-12-07T20:51:37.060Z,27.60
2018-12-07T20:54:04.304Z,28.00
2018-12-07T20:56:31.708Z,30.43
2018-12-07T20:58:58.781Z,32.57
2018-12-07T21:01:26.065Z,35.73
2018-12-07T21:07:36.109Z,30.20
2018-12-07T21:17:07.600Z,29.20
2018-12-07T21:19:38.070Z,29.40
2018-12-07T21:22:12.800Z,29.73
2018-12-07T21:24:40.488Z,31.00
2018-12-07T21:27:07.790Z,29.53
2018-12-07T21:29:35.744Z,28.63
2018-12-07T21:32:08.966Z,30.40
2018-12-07T21:34:57.903Z,34.60
2018-12-07T21:37:25.040Z,30.93
2018-12-07T21:39:57.477Z,35.47
2018-12-07T21:42:24.715Z,36.03
2018-12-07T21:45:05.886Z,34.43
2018-12-07T21:51:10.784Z,34.43
2018-12-07T21:53:37.959Z,33.97
2018-12-07T21:56:05.666Z,33.20
2018-12-07T21:58:32.918Z,33.13
2018-12-07T22:01:00.134Z,32.80
2018-12-07T22:03:27.396Z,33.43
2018-12-07T22:05:54.670Z,31.87
2018-12-07T22:08:21.798Z,30.70
2018-12-07T22:10:48.963Z,29.50
2018-12-07T22:13:15.976Z,28.83
2018-12-07T22:15:43.318Z,29.17
2018-12-07T22:18:17.500Z,29.63
2018-12-07T22:20:44.537Z,28.43
2018-12-07T22:23:11.796Z,29.73
2018-12-07T22:25:39.609Z,28.20
2018-12-07T22:28:07.297Z,27.10
2018-12-07T22:30:34.588Z,27.43
2018-12-07T22:33:01.804Z,25.57
2018-12-07T22:35:28.976Z,22.17
2018-12-07T22:37:56.229Z,22.13
2018-12-07T22:40:23.649Z,19.27
2018-12-07T22:42:50.960Z,18.83
2018-12-07T22:45:18.654Z,17.03
2018-12-07T22:47:46.032Z,15.20
2018-12-07T22:50:13.016Z,12.50
2018-12-07T22:52:39.997Z,11.77
2018-12-07T22:55:07.016Z,11.00
2018-12-07T22:57:34.938Z,10.10
2018-12-07T23:00:01.957Z,9.47
2018-12-07T23:02:29.256Z,9.43
2018-12-07T23:04:56.597Z,8.90
2018-12-07T23:07:23.617Z,8.83
2018-12-07T23:09:50.598Z,8.50
2018-12-07T23:12:17.676Z,8.07
2018-12-07T23:14:44.697Z,7.37
2018-12-07T23:17:18.616Z,7.10
2018-12-07T23:19:45.636Z,7.50
2018-12-07T23:22:12.797Z,7.63
2018-12-07T23:24:39.736Z,7.37
2018-12-07T23:27:06.736Z,7.90
2018-12-07T23:29:34.302Z,6.73
2018-12-07T23:32:01.338Z,6.73
2018-12-07T23:34:28.337Z,6.20
2018-12-07T23:36:55.417Z,6.53
2018-12-07T23:39:22.456Z,6.80
2018-12-07T23:41:49.496Z,6.83
2018-12-07T23:44:16.415Z,6.73
2018-12-07T23:46:43.396Z,6.20
2018-12-07T23:49:10.496Z,6.33
2018-12-07T23:51:37.557Z,5.90
2018-12-07T23:54:04.576Z,7.30
2018-12-07T23:56:31.615Z,6.87
2018-12-07T23:58:58.615Z,6.97
